createdAt,value
2018-09-25T00:02:33.580Z,81.10
2018-09-25T00:05:07.812Z,81.60
2018-09-25T00:07:42.132Z,81.80
2018-09-25T00:10:16.346Z,81.90
2018-09-25T00:12:50.840Z,82.20
2018-09-25T00:15:25.091Z,82.60
2018-09-25T00:17:59.408Z,82.90
2018-09-25T00:20:33.668Z,82.80
2018-09-25T00:23:07.945Z,83.10
2018-09-25T00:25:42.243Z,82.90
2018-09-25T00:28:16.377Z,82.70
2018-09-25T00:30:50.571Z,82.40
2018-09-25T00:33:24.792Z,82.30
2018-09-25T00:35:59.089Z,82.70
2018-09-25T00:38:33.233Z,83.10
2018-09-25T00:41:07.329Z,83.30
2018-09-25T00:43:41.636Z,82.50
2018-09-25T00:46:15.938Z,82.60
2018-09-25T00:48:50.318Z,83.00
2018-09-25T00:51:24.440Z,83.10
2018-09-25T00:53:58.682Z,82.90
2018-09-25T00:56:32.882Z,83.50
2018-09-25T00:59:07.104Z,84.20
2018-09-25T01:01:41.315Z,83.80
2018-09-25T01:04:15.561Z,84.40
2018-09-25T01:06:49.663Z,84.50
2018-09-25T01:09:23.964Z,84.50
2018-09-25T01:11:58.193Z,84.50
2018-09-25T01:14:32.404Z,84.50
2018-09-25T01:17:06.635Z,84.40
2018-09-25T01:19:40.807Z,84.30
2018-09-25T01:22:14.996Z,84.00
2018-09-25T01:24:49.370Z,83.50
2018-09-25T01:27:23.481Z,83.80
2018-09-25T01:29:57.797Z,83.30
2018-09-25T01:32:31.996Z,83.60
2018-09-25T01:35:06.185Z,84.20
2018-09-25T01:37:40.470Z,83.90
2018-09-25T01:40:14.740Z,84.10
2018-09-25T01:42:48.967Z,84.20
2018-09-25T01:45:23.293Z,84.20
2018-09-25T01:47:57.505Z,83.80
2018-09-25T01:50:31.800Z,83.50
2018-09-25T01:53:06.105Z,83.60
2018-09-25T01:55:40.285Z,84.50
2018-09-25T01:58:14.404Z,83.90
2018-09-25T02:00:49.088Z,83.90
2018-09-25T02:03:23.496Z,83.90
2018-09-25T02:05:57.688Z,83.90
2018-09-25T02:08:31.679Z,83.90
2018-09-25T02:11:05.740Z,84.10
2018-09-25T02:13:40.012Z,84.30
2018-09-25T02:16:14.201Z,84.30
2018-09-25T02:18:48.456Z,85.00
2018-09-25T02:21:22.590Z,85.00
2018-09-25T02:23:56.761Z,84.80
2018-09-25T02:26:31.040Z,85.40
2018-09-25T02:29:05.279Z,85.20
2018-09-25T02:31:39.508Z,84.80
2018-09-25T02:34:13.821Z,85.30
2018-09-25T02:36:48.153Z,85.30
2018-09-25T02:39:22.470Z,85.60
2018-09-25T02:41:56.726Z,85.70
2018-09-25T02:44:30.976Z,86.30
2018-09-25T02:47:05.101Z,86.60
2018-09-25T02:49:39.411Z,86.60
2018-09-25T02:52:13.679Z,86.70
2018-09-25T02:54:47.930Z,86.70
2018-09-25T02:57:22.149Z,86.80
2018-09-25T02:59:56.344Z,87.00
2018-09-25T03:02:30.660Z,87.10
2018-09-25T03:05:04.959Z,86.70
2018-09-25T03:07:39.240Z,86.60
2018-09-25T03:10:13.538Z,86.80
2018-09-25T03:12:47.749Z,86.60
2018-09-25T03:15:21.867Z,87.10
2018-09-25T03:17:56.058Z,86.80
2018-09-25T03:20:30.236Z,86.40
2018-09-25T03:23:04.485Z,86.30
2018-09-25T03:25:38.739Z,86.20
2018-09-25T03:28:12.884Z,86.20
2018-09-25T03:30:47.100Z,86.20
2018-09-25T03:33:21.352Z,86.20
2018-09-25T03:35:55.583Z,86.50
2018-09-25T03:38:29.800Z,86.60
2018-09-25T03:41:03.987Z,87.30
2018-09-25T03:43:38.076Z,87.20
2018-09-25T03:46:12.286Z,86.90
2018-09-25T03:48:46.562Z,86.80
2018-09-25T03:51:20.767Z,86.70
2018-09-25T03:53:54.993Z,87.10
2018-09-25T03:56:29.338Z,87.20
2018-09-25T03:59:03.490Z,87.30
2018-09-25T04:01:37.870Z,87.30
2018-09-25T04:04:12.144Z,87.30
2018-09-25T04:06:46.492Z,87.40
2018-09-25T04:09:20.759Z,87.90
2018-09-25T04:11:55.015Z,87.10
2018-09-25T04:14:29.320Z,87.20
2018-09-25T04:17:03.534Z,87.60
2018-09-25T04:19:37.969Z,87.40
2018-09-25T04:22:12.133Z,87.50
2018-09-25T04:24:46.397Z,87.40
2018-09-25T04:27:20.548Z,87.30
2018-09-25T04:29:54.711Z,87.40
2018-09-25T04:32:28.943Z,87.60
2018-09-25T04:35:03.203Z,88.00
2018-09-25T04:37:37.416Z,88.00
2018-09-25T04:40:11.912Z,88.10
2018-09-25T04:42:46.164Z,88.40
2018-09-25T04:45:20.357Z,88.60
2018-09-25T04:47:54.619Z,88.90
2018-09-25T04:50:28.800Z,89.20
2018-09-25T04:53:02.875Z,89.90
2018-09-25T04:55:37.106Z,89.70
2018-09-25T04:58:11.793Z,89.30
2018-09-25T05:00:46.066Z,89.60
2018-09-25T05:03:20.161Z,90.00
2018-09-25T05:05:54.264Z,90.00
2018-09-25T05:08:28.328Z,89.90
2018-09-25T05:11:02.665Z,89.50
2018-09-25T05:13:36.895Z,89.30
2018-09-25T05:16:11.069Z,88.70
2018-09-25T05:18:45.234Z,88.30
2018-09-25T05:21:19.405Z,88.50
2018-09-25T05:23:55.397Z,88.70
2018-09-25T05:26:29.749Z,88.90
2018-09-25T05:29:03.980Z,88.80
2018-09-25T05:31:38.358Z,88.90
2018-09-25T05:47:41.485Z,88.80
2018-09-25T05:50:15.740Z,89.60
2018-09-25T05:52:49.989Z,90.00
2018-09-25T05:55:26.702Z,90.00
2018-09-25T05:58:00.885Z,90.00
2018-09-25T06:00:36.100Z,90.40
2018-09-25T06:03:10.500Z,90.20
2018-09-25T06:05:47.791Z,90.10
2018-09-25T06:08:24.247Z,90.20
2018-09-25T06:11:05.223Z,90.20
2018-09-25T06:13:39.420Z,90.20
2018-09-25T06:16:13.642Z,90.20
2018-09-25T06:18:47.871Z,90.10
2018-09-25T06:21:21.980Z,89.70
2018-09-25T06:23:56.209Z,89.70
2018-09-25T06:26:30.468Z,89.60
2018-09-25T06:29:04.789Z,89.40
2018-09-25T06:31:39.012Z,88.50
2018-09-25T06:34:13.248Z,87.80
2018-09-25T06:36:47.544Z,87.10
2018-09-25T06:39:22.225Z,86.80
2018-09-25T06:41:56.279Z,85.70
2018-09-25T06:44:30.480Z,85.40
2018-09-25T06:47:04.897Z,85.00
2018-09-25T06:49:39.180Z,85.30
2018-09-25T06:52:13.432Z,83.10
2018-09-25T06:54:47.636Z,83.50
2018-09-25T06:57:21.934Z,83.60
2018-09-25T06:59:56.233Z,83.10
2018-09-25T07:02:30.588Z,83.90
2018-09-25T07:05:04.911Z,82.60
2018-09-25T07:07:39.064Z,82.40
2018-09-25T07:10:13.457Z,80.90
2018-09-25T07:12:47.544Z,79.30
2018-09-25T07:15:21.823Z,78.40
2018-09-25T07:17:56.191Z,79.40
2018-09-25T07:20:30.363Z,79.90
2018-09-25T07:23:04.511Z,80.60
2018-09-25T07:25:38.727Z,78.90
2018-09-25T07:28:12.988Z,79.00
2018-09-25T07:30:47.160Z,78.20
2018-09-25T07:33:21.457Z,78.00
2018-09-25T07:35:55.615Z,77.70
2018-09-25T07:38:29.909Z,77.60
2018-09-25T07:41:04.174Z,77.40
2018-09-25T07:43:38.327Z,77.50
2018-09-25T07:46:12.641Z,77.40
2018-09-25T07:48:46.958Z,76.70
2018-09-25T07:51:21.244Z,75.90
2018-09-25T07:53:55.361Z,75.90
2018-09-25T07:56:29.488Z,76.20
2018-09-25T08:01:37.488Z,74.00
2018-09-25T08:04:11.704Z,75.90
2018-09-25T08:06:45.949Z,76.50
2018-09-25T08:09:20.132Z,75.00
2018-09-25T08:11:54.276Z,74.60
2018-09-25T08:14:28.681Z,74.40
2018-09-25T08:17:02.967Z,73.90
2018-09-25T08:19:37.324Z,72.70
2018-09-25T08:22:11.650Z,71.60
2018-09-25T08:24:45.949Z,71.40
2018-09-25T08:27:20.096Z,73.70
2018-09-25T08:29:54.380Z,73.30
2018-09-25T08:32:28.600Z,73.00
2018-09-25T08:35:02.956Z,71.50
2018-09-25T08:37:37.108Z,70.40
2018-09-25T08:40:11.457Z,69.60
2018-09-25T08:42:45.561Z,70.00
2018-09-25T08:45:19.770Z,70.00
2018-09-25T08:47:53.982Z,69.90
2018-09-25T08:50:28.294Z,67.50
2018-09-25T08:53:02.582Z,66.40
2018-09-25T08:55:36.755Z,66.20
2018-09-25T08:58:11.297Z,67.30
2018-09-25T09:00:45.581Z,65.70
2018-09-25T09:03:19.800Z,64.50
2018-09-25T09:05:54.111Z,63.20
2018-09-25T09:08:28.371Z,62.80
2018-09-25T09:11:02.688Z,60.50
2018-09-25T09:13:36.839Z,62.00
2018-09-25T09:16:11.090Z,62.30
2018-09-25T09:18:45.321Z,61.40
2018-09-25T09:21:19.614Z,61.00
2018-09-25T09:23:53.888Z,63.60
2018-09-25T09:26:28.222Z,61.00
2018-09-25T09:29:02.452Z,60.90
2018-09-25T09:34:10.619Z,58.30
2018-09-25T09:39:18.795Z,59.80
2018-09-25T09:41:53.174Z,57.00
2018-09-25T09:44:27.309Z,56.60
2018-09-25T09:47:01.519Z,57.20
2018-09-25T09:49:35.756Z,57.40
2018-09-25T09:52:09.866Z,57.10
2018-09-25T09:54:44.221Z,56.90
2018-09-25T09:57:18.504Z,56.00
2018-09-25T09:59:52.696Z,56.70
2018-09-25T10:02:26.916Z,56.20
2018-09-25T10:05:01.250Z,56.60
2018-09-25T10:07:35.468Z,54.00
2018-09-25T10:10:11.125Z,51.50
2018-09-25T10:12:45.319Z,50.50
2018-09-25T10:15:19.523Z,50.80
2018-09-25T10:17:53.753Z,51.90
2018-09-25T10:20:27.983Z,51.00
2018-09-25T10:23:02.182Z,51.10
2018-09-25T10:25:36.418Z,52.50
2018-09-25T10:28:10.736Z,52.50
2018-09-25T10:30:45.078Z,52.90
2018-09-25T10:33:19.371Z,51.90
2018-09-25T10:35:53.593Z,53.20
2018-09-25T10:38:27.761Z,52.10
2018-09-25T10:41:01.977Z,51.70
2018-09-25T10:43:36.097Z,51.80
2018-09-25T10:46:10.401Z,51.80
2018-09-25T10:48:44.668Z,50.80
2018-09-25T10:51:19.036Z,50.90
2018-09-25T10:53:53.436Z,50.20
2018-09-25T10:56:27.743Z,49.50
2018-09-25T10:59:02.035Z,49.00
2018-09-25T11:01:36.299Z,47.80
2018-09-25T11:04:10.610Z,47.60
2018-09-25T11:06:44.727Z,48.90
2018-09-25T11:09:19.016Z,49.00
2018-09-25T11:11:53.237Z,48.70
2018-09-25T11:14:27.512Z,50.00
2018-09-25T11:17:01.785Z,49.20
2018-09-25T11:19:36.117Z,49.00
2018-09-25T11:22:10.432Z,48.20
2018-09-25T11:24:44.743Z,47.90
2018-09-25T11:27:18.929Z,48.20
2018-09-25T11:29:53.171Z,47.90
2018-09-25T11:32:27.486Z,47.60
2018-09-25T11:35:01.805Z,47.90
2018-09-25T11:37:36.104Z,48.70
2018-09-25T11:40:10.500Z,47.20
2018-09-25T11:42:44.876Z,49.60
2018-09-25T11:45:19.044Z,47.30
2018-09-25T11:47:53.190Z,46.70
2018-09-25T11:50:27.347Z,46.10
2018-09-25T11:53:02.407Z,46.10
2018-09-25T11:55:41.545Z,46.60
2018-09-25T11:58:15.839Z,45.70
2018-09-25T12:00:50.155Z,46.10
2018-09-25T12:03:25.530Z,45.80
2018-09-25T12:06:00.116Z,46.90
2018-09-25T12:08:34.376Z,45.70
2018-09-25T12:11:08.712Z,45.30
2018-09-25T12:13:43.535Z,45.30
2018-09-25T12:16:18.528Z,46.20
2018-09-25T12:18:52.834Z,45.60
2018-09-25T12:21:44.296Z,45.60
2018-09-25T12:24:18.560Z,45.20
2018-09-25T12:26:53.332Z,44.40
2018-09-25T12:29:27.537Z,43.00
2018-09-25T12:32:01.893Z,43.80
2018-09-25T12:34:36.070Z,43.60
2018-09-25T12:37:10.396Z,44.60
2018-09-25T12:39:44.661Z,43.90
2018-09-25T12:42:18.787Z,43.80
2018-09-25T12:44:53.606Z,45.20
2018-09-25T12:47:27.989Z,43.90
2018-09-25T12:50:02.372Z,42.70
2018-09-25T12:52:36.739Z,44.40
2018-09-25T12:55:10.983Z,44.20
2018-09-25T12:57:45.248Z,43.70
2018-09-25T13:00:19.457Z,43.50
2018-09-25T13:02:53.769Z,42.90
2018-09-25T13:05:29.486Z,44.80
2018-09-25T13:08:03.798Z,43.60
2018-09-25T13:10:38.040Z,43.40
2018-09-25T13:13:12.280Z,44.00
2018-09-25T13:15:46.596Z,43.70
2018-09-25T13:18:20.946Z,44.40
2018-09-25T13:20:56.162Z,44.30
2018-09-25T13:23:30.743Z,44.10
2018-09-25T13:26:04.992Z,44.20
2018-09-25T13:28:39.213Z,44.30
2018-09-25T13:31:13.505Z,43.50
2018-09-25T13:33:47.570Z,44.20
2018-09-25T13:36:21.789Z,43.40
2018-09-25T13:38:56.074Z,43.00
2018-09-25T13:41:30.388Z,44.00
2018-09-25T13:44:04.697Z,43.30
2018-09-25T13:46:38.895Z,44.20
2018-09-25T13:49:13.191Z,42.20
2018-09-25T13:51:47.509Z,43.20
2018-09-25T13:54:21.758Z,43.00
2018-09-25T13:56:56.063Z,42.50
2018-09-25T13:59:30.424Z,43.90
2018-09-25T14:02:04.707Z,43.40
2018-09-25T14:53:25.084Z,43.60
2018-09-25T14:55:59.229Z,37.90
2018-09-25T14:58:33.753Z,37.50
2018-09-25T15:01:07.960Z,38.00
2018-09-25T15:03:42.309Z,37.80
2018-09-25T15:06:16.580Z,39.80
2018-09-25T15:08:50.911Z,39.30
2018-09-25T15:11:25.215Z,39.00
2018-09-25T15:13:59.600Z,38.30
2018-09-25T15:16:33.780Z,39.20
2018-09-25T15:19:08.022Z,38.70
2018-09-25T15:21:42.429Z,39.70
2018-09-25T15:24:16.554Z,40.10
2018-09-25T15:26:51.643Z,40.70
2018-09-25T15:29:25.834Z,41.10
2018-09-25T15:32:00.200Z,40.50
2018-09-25T15:34:34.451Z,41.50
2018-09-25T15:37:08.659Z,40.90
2018-09-25T15:39:42.975Z,41.40
2018-09-25T15:42:17.260Z,41.30
2018-09-25T15:44:51.403Z,42.30
2018-09-25T15:47:25.812Z,42.60
2018-09-25T15:50:00.119Z,42.50
2018-09-25T15:52:34.380Z,43.40
2018-09-25T15:55:08.647Z,43.70
2018-09-25T15:57:42.885Z,44.10
2018-09-25T16:00:17.234Z,44.40
2018-09-25T16:02:51.509Z,44.30
2018-09-25T16:05:26.570Z,44.50
2018-09-25T16:08:00.823Z,44.40
2018-09-25T16:10:35.090Z,44.30
2018-09-25T16:13:09.404Z,44.10
2018-09-25T16:15:43.672Z,44.40
2018-09-25T16:18:17.994Z,44.60
2018-09-25T16:20:52.193Z,45.20
2018-09-25T16:23:26.481Z,44.90
2018-09-25T16:26:00.825Z,44.80
2018-09-25T16:28:35.100Z,45.20
2018-09-25T16:31:09.374Z,45.20
2018-09-25T16:33:43.660Z,45.40
2018-09-25T16:36:17.887Z,45.00
2018-09-25T16:38:52.021Z,45.90
2018-09-25T16:41:26.227Z,45.80
2018-09-25T16:44:00.572Z,45.60
2018-09-25T16:46:34.835Z,45.40
2018-09-25T16:49:09.164Z,45.30
2018-09-25T16:51:43.416Z,45.70
2018-09-25T16:54:17.675Z,46.80
2018-09-25T16:56:51.947Z,46.80
2018-09-25T16:59:26.569Z,47.00
2018-09-25T17:02:00.884Z,47.00
2018-09-25T17:04:35.131Z,47.60
2018-09-25T17:07:09.291Z,47.60
2018-09-25T17:09:43.453Z,47.70
2018-09-25T17:12:17.559Z,48.20
2018-09-25T17:14:51.872Z,48.60
2018-09-25T17:17:26.164Z,48.70
2018-09-25T17:20:00.504Z,48.60
2018-09-25T17:22:34.603Z,48.10
2018-09-25T17:25:09.012Z,49.30
2018-09-25T17:27:43.123Z,48.80
2018-09-25T17:30:17.254Z,49.00
2018-09-25T17:32:51.526Z,48.70
2018-09-25T17:35:25.918Z,49.30
2018-09-25T17:38:00.156Z,49.10
2018-09-25T17:40:35.413Z,49.10
2018-09-25T17:43:09.715Z,49.10
2018-09-25T17:45:43.848Z,49.00
2018-09-25T17:48:18.177Z,48.60
2018-09-25T17:50:52.254Z,48.40
2018-09-25T17:53:26.429Z,48.80
2018-09-25T17:56:00.621Z,49.10
2018-09-25T17:58:34.852Z,49.30
2018-09-25T18:01:09.183Z,49.20
2018-09-25T18:03:43.516Z,49.40
2018-09-25T18:06:17.741Z,49.80
2018-09-25T18:08:52.047Z,49.60
2018-09-25T18:11:26.314Z,50.00
2018-09-25T18:14:00.581Z,50.00
2018-09-25T18:16:34.869Z,50.20
2018-09-25T18:19:09.216Z,49.60
2018-09-25T18:21:43.439Z,49.60
2018-09-25T18:24:19.336Z,50.30
2018-09-25T18:26:53.544Z,49.90
2018-09-25T18:29:28.324Z,50.30
2018-09-25T18:32:03.031Z,50.60
2018-09-25T18:34:37.386Z,50.50
2018-09-25T18:37:11.951Z,50.40
2018-09-25T18:39:46.244Z,50.40
2018-09-25T18:42:20.491Z,50.80
2018-09-25T18:44:54.683Z,50.90
2018-09-25T18:47:29.011Z,51.30
2018-09-25T18:50:03.176Z,51.50
2018-09-25T18:52:37.398Z,51.50
2018-09-25T18:55:11.514Z,51.60
2018-09-25T18:57:45.838Z,51.50
2018-09-25T19:00:20.072Z,51.60
2018-09-25T19:02:54.380Z,51.90
2018-09-25T19:05:28.511Z,52.30
2018-09-25T19:08:02.685Z,52.10
2018-09-25T19:10:36.873Z,52.30
2018-09-25T19:13:11.188Z,52.20
2018-09-25T19:15:45.419Z,52.10
2018-09-25T19:18:19.600Z,52.20
2018-09-25T19:20:53.911Z,52.20
2018-09-25T19:23:28.047Z,52.90
2018-09-25T19:26:02.289Z,53.00
2018-09-25T19:28:36.405Z,52.60
2018-09-25T19:31:10.718Z,52.60
2018-09-25T19:33:45.037Z,52.50
2018-09-25T19:36:19.346Z,52.40
2018-09-25T19:38:53.478Z,53.40
2018-09-25T19:41:27.691Z,52.80
2018-09-25T19:44:01.850Z,52.90
2018-09-25T19:46:36.031Z,52.80
2018-09-25T19:49:11.139Z,52.60
2018-09-25T19:52:48.811Z,52.90
2018-09-25T19:55:23.965Z,53.00
2018-09-25T19:57:58.205Z,52.00
2018-09-25T20:00:32.278Z,52.10
2018-09-25T20:03:06.534Z,52.40
2018-09-25T20:05:40.800Z,53.00
2018-09-25T20:08:15.127Z,52.80
2018-09-25T20:10:49.324Z,52.40
2018-09-25T20:13:23.619Z,52.60
2018-09-25T20:15:57.860Z,52.80
2018-09-25T20:18:32.156Z,53.40
2018-09-25T20:21:06.485Z,54.30
2018-09-25T20:23:40.878Z,54.60
2018-09-25T20:26:15.155Z,54.10
2018-09-25T20:28:49.380Z,54.10
2018-09-25T20:31:23.547Z,53.90
2018-09-25T20:33:57.827Z,53.70
2018-09-25T20:36:32.111Z,53.70
2018-09-25T20:39:06.427Z,53.80
2018-09-25T20:41:40.608Z,54.00
2018-09-25T20:44:15.023Z,54.10
2018-09-25T20:46:49.195Z,54.70
2018-09-25T20:49:23.516Z,54.80
2018-09-25T20:51:57.804Z,53.90
2018-09-25T20:54:32.175Z,53.50
2018-09-25T20:57:06.464Z,53.10
2018-09-25T20:59:40.794Z,53.00
2018-09-25T21:02:15.082Z,53.70
2018-09-25T21:04:50.370Z,53.80
2018-09-25T21:07:24.570Z,53.90
2018-09-25T21:09:58.898Z,54.30
2018-09-25T21:12:33.209Z,54.70
2018-09-25T21:15:07.589Z,55.90
2018-09-25T21:17:41.958Z,55.90
2018-09-25T21:20:17.259Z,56.30
2018-09-25T21:22:51.487Z,56.40
2018-09-25T21:25:25.789Z,57.10
2018-09-25T21:28:00.055Z,57.40
2018-09-25T21:30:34.320Z,57.50
2018-09-25T21:33:08.662Z,57.20
2018-09-25T21:35:42.910Z,57.10
2018-09-25T21:38:17.180Z,56.70
2018-09-25T21:40:52.156Z,56.30
2018-09-25T21:43:26.407Z,56.20
2018-09-25T21:46:01.652Z,56.50
2018-09-25T21:48:35.814Z,56.60
2018-09-25T21:51:10.193Z,56.50
2018-09-25T21:53:44.320Z,56.80
2018-09-25T21:56:18.515Z,58.80
2018-09-25T21:58:52.859Z,58.90
2018-09-25T22:01:26.964Z,58.70
2018-09-25T22:04:01.299Z,58.40
2018-09-25T22:06:35.587Z,58.40
2018-09-25T22:09:12.213Z,58.70
2018-09-25T22:11:46.561Z,59.20
2018-09-25T22:14:20.814Z,59.70
2018-09-25T22:16:55.103Z,58.60
2018-09-25T22:19:29.422Z,57.80
2018-09-25T22:22:03.880Z,58.80
2018-09-25T22:24:38.062Z,59.10
2018-09-25T22:27:12.524Z,60.90
2018-09-25T22:29:47.033Z,59.80
2018-09-25T22:32:21.192Z,58.70
2018-09-25T22:34:55.562Z,59.00
2018-09-25T22:37:29.587Z,58.30
2018-09-25T22:40:04.060Z,59.30
2018-09-25T22:42:38.250Z,59.60
2018-09-25T22:45:12.489Z,59.40
2018-09-25T22:47:46.820Z,59.30
2018-09-25T22:50:21.643Z,59.40
2018-09-25T22:52:55.898Z,59.70
2018-09-25T22:55:30.214Z,60.70
2018-09-25T22:58:04.384Z,60.60
2018-09-25T23:00:38.669Z,61.50
2018-09-25T23:03:12.914Z,62.70
2018-09-25T23:05:47.212Z,63.20
2018-09-25T23:08:21.331Z,64.50
2018-09-25T23:10:55.619Z,64.30
2018-09-25T23:13:30.932Z,63.00
2018-09-25T23:16:05.248Z,61.50
2018-09-25T23:18:39.440Z,63.70
2018-09-25T23:21:13.672Z,62.30
2018-09-25T23:23:47.968Z,60.40
2018-09-25T23:26:22.105Z,61.20
2018-09-25T23:28:56.293Z,61.70
2018-09-25T23:31:30.594Z,59.50
2018-09-25T23:34:04.828Z,58.20
2018-09-25T23:36:39.055Z,57.80
2018-09-25T23:40:15.100Z,57.90
2018-09-25T23:42:57.873Z,58.90
2018-09-25T23:45:33.192Z,58.50
2018-09-25T23:48:07.385Z,57.10
2018-09-25T23:50:44.304Z,56.70
2018-09-25T23:53:17.958Z,56.30
2018-09-25T23:56:49.757Z,57.20
2018-09-25T23:59:23.260Z,57.50
